Time,TemperatureF,DewpointF,PressureIn,WindDirection,WindDirectionDegrees,WindSpeedMPH,WindSpeedGustMPH,Humidity,HourlyPrecipIn,Conditions,Clouds,dailyrainin,SoftwareType,DateUTC
2013-04-07 00:02:00,49.0,47.0,-100.00,SW,235,8.0,14.0,93,0.00,,,0.01,,2013-04-07 05:02:00,
2013-04-07 00:12:00,49.0,47.0,-100.00,SW,235,8.0,14.0,93,0.00,,,0.01,,2013-04-07 05:12:00,
2013-04-07 00:52:00,49.0,46.0,-100.00,WNW,283,15.0,21.0,91,0.00,,,0.01,,2013-04-07 05:52:00,
2013-04-07 01:02:00,49.0,46.0,-100.00,WNW,283,15.0,21.0,91,0.00,,,0.01,,2013-04-07 06:02:00,
2013-04-07 01:12:00,49.0,46.0,-100.00,WNW,283,15.0,21.0,91,0.00,,,0.01,,2013-04-07 06:12:00,
2013-04-07 01:22:00,49.0,46.0,-100.00,WNW,283,15.0,21.0,91,0.00,,,0.01,,2013-04-07 06:22:00,
2013-04-07 01:52:00,43.0,39.0,-100.00,NW,305,17.0,27.0,87,0.00,,,0.01,,2013-04-07 06:52:00,
2013-04-07 02:02:00,43.0,39.0,-100.00,NW,305,17.0,27.0,87,0.00,,,0.01,,2013-04-07 07:02:00,
2013-04-07 02:12:00,43.0,39.0,-100.00,NW,305,17.0,27.0,87,0.00,,,0.01,,2013-04-07 07:12:00,
2013-04-07 02:22:00,43.0,39.0,-100.00,NW,305,17.0,27.0,87,0.00,,,0.01,,2013-04-07 07:22:00,
2013-04-07 02:52:00,40.0,36.0,-100.00,NW,304,17.0,31.0,86,0.00,,,0.01,,2013-04-07 07:52:00,
2013-04-07 03:02:00,40.0,36.0,-100.00,NW,304,17.0,31.0,86,0.00,,,0.01,,2013-04-07 08:02:00,
2013-04-07 03:12:00,40.0,36.0,-100.00,NW,304,17.0,31.0,86,0.00,,,0.01,,2013-04-07 08:12:00,
2013-04-07 03:22:00,40.0,36.0,-100.00,NW,304,17.0,31.0,86,0.00,,,0.01,,2013-04-07 08:22:00,
2013-04-07 03:53:00,39.0,35.0,-100.00,WNW,299,19.0,28.0,84,0.00,,,0.01,,2013-04-07 08:53:00,
2013-04-07 04:02:00,39.0,35.0,-100.00,WNW,299,19.0,28.0,84,0.00,,,0.01,,2013-04-07 09:02:00,
2013-04-07 04:12:00,39.0,35.0,-100.00,WNW,299,19.0,28.0,84,0.00,,,0.01,,2013-04-07 09:12:00,
2013-04-07 04:22:00,39.0,35.0,-100.00,WNW,299,19.0,28.0,84,0.00,,,0.01,,2013-04-07 09:22:00,
2013-04-07 04:54:00,37.0,33.0,-100.00,WNW,298,17.0,26.0,85,0.00,,,0.01,,2013-04-07 09:54:00,
2013-04-07 05:04:00,37.0,33.0,-100.00,WNW,298,17.0,26.0,85,0.00,,,0.01,,2013-04-07 10:04:00,
2013-04-07 05:13:00,37.0,33.0,-100.00,WNW,298,17.0,26.0,85,0.00,,,0.01,,2013-04-07 10:13:00,
2013-04-07 05:23:00,37.0,33.0,-100.00,WNW,298,17.0,26.0,85,0.00,,,0.01,,2013-04-07 10:23:00,
2013-04-07 05:54:00,37.0,33.0,-100.00,WNW,300,14.0,23.0,84,0.00,,,0.01,,2013-04-07 10:54:00,
2013-04-07 06:03:00,37.0,33.0,-100.00,WNW,300,14.0,23.0,84,0.00,,,0.01,,2013-04-07 11:03:00,
2013-04-07 06:12:00,37.0,33.0,-100.00,WNW,300,14.0,23.0,84,0.00,,,0.01,,2013-04-07 11:12:00,
2013-04-07 06:22:00,37.0,33.0,-100.00,WNW,300,14.0,23.0,84,0.00,,,0.01,,2013-04-07 11:22:00,
2013-04-07 06:53:00,36.0,32.0,-100.00,WNW,302,12.0,25.0,85,0.00,,,0.01,,2013-04-07 11:53:00,
2013-04-07 07:02:00,36.0,32.0,-100.00,WNW,302,12.0,25.0,85,0.00,,,0.01,,2013-04-07 12:02:00,
2013-04-07 07:12:00,36.0,32.0,-100.00,WNW,302,12.0,25.0,85,0.00,,,0.01,,2013-04-07 12:12:00,
2013-04-07 07:22:00,36.0,32.0,-100.00,WNW,302,12.0,25.0,85,0.00,,,0.01,,2013-04-07 12:22:00,
2013-04-07 07:54:00,36.0,32.0,-100.00,NW,307,10.0,18.0,85,0.00,,,0.01,,2013-04-07 12:54:00,
2013-04-07 08:13:00,36.0,32.0,-100.00,NW,307,10.0,18.0,85,0.00,,,0.01,,2013-04-07 13:13:00,
2013-04-07 08:22:00,36.0,32.0,-100.00,NW,307,10.0,18.0,85,0.00,,,0.01,,2013-04-07 13:22:00,
2013-04-07 08:53:00,37.0,32.0,-100.00,NW,313,10.0,18.0,82,0.00,,,0.01,,2013-04-07 13:53:00,
2013-04-07 09:02:00,37.0,32.0,-100.00,NW,313,10.0,18.0,82,0.00,,,0.01,,2013-04-07 14:02:00,
2013-04-07 09:12:00,37.0,32.0,-100.00,NW,313,10.0,18.0,82,0.00,,,0.01,,2013-04-07 14:12:00,
2013-04-07 09:23:00,37.0,32.0,-100.00,NW,313,10.0,18.0,82,0.00,,,0.01,,2013-04-07 14:23:00,
2013-04-07 09:54:00,37.0,31.0,-100.00,NW,319,10.0,19.0,79,0.00,,,-99.99,,2013-04-07 14:54:00,
2013-04-07 10:03:00,37.0,31.0,-100.00,NW,319,10.0,19.0,79,0.00,,,-99.99,,2013-04-07 15:03:00,
2013-04-07 10:12:00,37.0,31.0,-100.00,NW,319,10.0,19.0,79,0.00,,,-99.99,,2013-04-07 15:12:00,
2013-04-07 10:22:00,37.0,31.0,-100.00,NW,319,10.0,19.0,79,0.00,,,-99.99,,2013-04-07 15:22:00,
2013-04-07 10:55:00,38.0,31.0,-100.00,NW,325,10.0,16.0,76,0.00,,,0.01,,2013-04-07 15:55:00,
2013-04-07 11:04:00,38.0,31.0,-100.00,NW,325,10.0,16.0,76,0.00,,,0.01,,2013-04-07 16:04:00,
2013-04-07 11:13:00,38.0,31.0,-100.00,NW,325,10.0,16.0,76,0.00,,,0.01,,2013-04-07 16:13:00,
2013-04-07 11:24:00,38.0,31.0,-100.00,NW,325,10.0,16.0,76,0.00,,,0.01,,2013-04-07 16:24:00,
2013-04-07 11:54:00,39.0,31.0,-100.00,NW,314,7.0,14.0,74,0.00,,,0.01,,2013-04-07 16:54:00,
2013-04-07 12:04:00,39.0,31.0,-100.00,NW,314,7.0,14.0,74,0.00,,,0.01,,2013-04-07 17:04:00,
2013-04-07 12:13:00,39.0,31.0,-100.00,NW,314,7.0,14.0,74,0.00,,,0.01,,2013-04-07 17:13:00,
2013-04-07 12:23:00,39.0,31.0,-100.00,NW,314,7.0,14.0,74,0.00,,,0.01,,2013-04-07 17:23:00,
2013-04-07 12:54:00,40.0,32.0,-100.00,NW,306,7.0,12.0,72,0.00,,,0.01,,2013-04-07 17:54:00,
2013-04-07 13:02:00,40.0,32.0,-100.00,NW,306,7.0,12.0,72,0.00,,,0.01,,2013-04-07 18:02:00,
2013-04-07 13:13:00,40.0,32.0,-100.00,NW,306,7.0,12.0,72,0.00,,,0.01,,2013-04-07 18:13:00,
2013-04-07 13:23:00,40.0,32.0,-100.00,NW,306,7.0,12.0,72,0.00,,,0.01,,2013-04-07 18:23:00,
2013-04-07 13:53:00,42.0,33.0,-100.00,NW,312,6.0,12.0,69,0.00,,,0.01,,2013-04-07 18:53:00,
2013-04-07 14:03:00,42.0,33.0,-100.00,NW,312,6.0,12.0,69,0.00,,,0.01,,2013-04-07 19:03:00,
2013-04-07 14:12:00,42.0,33.0,-100.00,NW,312,6.0,12.0,69,0.00,,,0.01,,2013-04-07 19:12:00,
2013-04-07 14:22:00,42.0,33.0,-100.00,NW,312,6.0,12.0,69,0.00,,,0.01,,2013-04-07 19:22:00,
2013-04-07 14:55:00,44.0,33.0,-100.00,NW,325,8.0,13.0,65,0.00,,,0.01,,2013-04-07 19:55:00,
2013-04-07 15:03:00,44.0,33.0,-100.00,NW,325,8.0,13.0,65,0.00,,,0.01,,2013-04-07 20:03:00,
2013-04-07 15:13:00,44.0,33.0,-100.00,NW,325,8.0,13.0,65,0.00,,,0.01,,2013-04-07 20:13:00,
2013-04-07 15:22:00,44.0,33.0,-100.00,NW,325,8.0,13.0,65,0.00,,,0.01,,2013-04-07 20:22:00,
2013-04-07 15:54:00,46.0,33.0,-100.00,NW,320,5.0,15.0,60,0.00,,,0.01,,2013-04-07 20:54:00,
2013-04-07 16:03:00,46.0,33.0,-100.00,NW,320,5.0,15.0,60,0.00,,,0.01,,2013-04-07 21:03:00,
2013-04-07 16:13:00,46.0,33.0,-100.00,NW,320,5.0,15.0,60,0.00,,,0.01,,2013-04-07 21:13:00,
2013-04-07 16:22:00,46.0,33.0,-100.00,NW,320,5.0,15.0,60,0.00,,,0.01,,2013-04-07 21:22:00,
2013-04-07 16:55:00,49.0,34.0,-100.00,WNW,293,4.0,10.0,56,0.00,,,0.01,,2013-04-07 21:55:00,
2013-04-07 17:04:00,49.0,34.0,-100.00,WNW,293,4.0,10.0,56,0.00,,,0.01,,2013-04-07 22:04:00,
2013-04-07 17:14:00,49.0,34.0,-100.00,WNW,293,4.0,10.0,56,0.00,,,0.01,,2013-04-07 22:14:00,
2013-04-07 17:23:00,49.0,34.0,-100.00,WNW,293,4.0,10.0,56,0.00,,,0.01,,2013-04-07 22:23:00,
2013-04-07 17:53:00,51.0,34.0,-100.00,SSW,193,2.0,7.0,52,0.00,,,0.01,,2013-04-07 22:53:00,
2013-04-07 18:03:00,51.0,34.0,-100.00,SSW,193,2.0,7.0,52,0.00,,,0.01,,2013-04-07 23:03:00,
2013-04-07 18:13:00,51.0,34.0,-100.00,SSW,193,2.0,7.0,52,0.00,,,0.01,,2013-04-07 23:13:00,
2013-04-07 18:22:00,51.0,34.0,-100.00,SSW,193,2.0,7.0,52,0.00,,,0.01,,2013-04-07 23:22:00,
2013-04-07 18:53:00,50.0,35.0,-100.00,South,169,2.0,6.0,56,0.00,,,0.01,,2013-04-07 23:53:00,
2013-04-07 19:02:00,50.0,35.0,-100.00,South,169,2.0,6.0,56,0.00,,,0.01,,2013-04-08 00:02:00,
2013-04-07 19:12:00,50.0,35.0,-100.00,South,169,2.0,6.0,56,0.00,,,0.01,,2013-04-08 00:12:00,
2013-04-07 19:22:00,50.0,35.0,-100.00,South,169,2.0,6.0,56,0.00,,,0.01,,2013-04-08 00:22:00,
2013-04-07 19:53:00,45.0,35.0,-100.00,East,86,4.0,7.0,67,0.00,,,0.01,,2013-04-08 00:53:00,
2013-04-07 20:03:00,45.0,35.0,-100.00,East,86,4.0,7.0,67,0.00,,,0.01,,2013-04-08 01:03:00,
2013-04-07 20:12:00,45.0,35.0,-100.00,East,86,4.0,7.0,67,0.00,,,0.01,,2013-04-08 01:12:00,
2013-04-07 20:22:00,45.0,35.0,-100.00,East,86,4.0,7.0,67,0.00,,,0.01,,2013-04-08 01:22:00,
2013-04-07 20:55:00,43.0,34.0,-100.00,SE,127,7.0,12.0,71,0.00,,,0.00,,2013-04-08 01:55:00,
2013-04-07 21:03:00,43.0,34.0,-100.00,SE,127,7.0,12.0,71,0.00,,,0.00,,2013-04-08 02:03:00,
2013-04-07 21:12:00,43.0,34.0,-100.00,SE,127,7.0,12.0,71,0.00,,,0.00,,2013-04-08 02:12:00,
2013-04-07 21:22:00,43.0,34.0,-100.00,SE,127,7.0,12.0,71,0.00,,,0.00,,2013-04-08 02:22:00,
2013-04-07 21:54:00,37.0,31.0,-100.00,SE,137,11.0,17.0,79,0.00,,,0.00,,2013-04-08 02:54:00,
2013-04-07 22:08:00,37.0,31.0,-100.00,SE,137,11.0,17.0,79,0.00,,,0.00,,2013-04-08 03:08:00,
2013-04-07 22:15:00,37.0,31.0,-100.00,SE,137,11.0,17.0,79,0.00,,,0.00,,2013-04-08 03:15:00,
2013-04-07 22:24:00,37.0,31.0,-100.00,SE,137,11.0,17.0,79,0.00,,,0.00,,2013-04-08 03:24:00,
2013-04-07 23:03:00,36.0,30.0,-100.00,SE,138,11.0,14.0,79,0.00,,,0.00,,2013-04-08 04:03:00,
2013-04-07 23:12:00,36.0,30.0,-100.00,SE,138,11.0,14.0,79,0.00,,,0.00,,2013-04-08 04:12:00,
2013-04-07 23:23:00,36.0,30.0,-100.00,SE,138,11.0,14.0,79,0.00,,,0.00,,2013-04-08 04:23:00,
2013-04-07 23:53:00,36.0,30.0,-100.00,SE,140,11.0,18.0,78,0.00,,,0.00,,2013-04-08 04:53:00,